sensor_id;sensor_type;location;lat;lon;timestamp;P1;durP1;ratioP1;P2;durP2;ratioP2
70729;SDS011;58315;53.336;55.932;2023-04-07T00:01:14;10.88;;;3.50;;
70729;SDS011;58315;53.336;55.932;2023-04-07T00:03:40;15.23;;;4.00;;
70729;SDS011;58315;53.336;55.932;2023-04-07T00:06:06;7.07;;;3.33;;
70729;SDS011;58315;53.336;55.932;2023-04-07T00:08:32;15.70;;;3.83;;
70729;SDS011;58315;53.336;55.932;2023-04-07T00:10:58;11.60;;;3.30;;
70729;SDS011;58315;53.336;55.932;2023-04-07T00:13:24;13.80;;;3.90;;
70729;SDS011;58315;53.336;55.932;2023-04-07T00:15:50;11.88;;;4.13;;
70729;SDS011;58315;53.336;55.932;2023-04-07T00:18:17;15.65;;;4.32;;
70729;SDS011;58315;53.336;55.932;2023-04-07T00:20:43;7.80;;;3.80;;
70729;SDS011;58315;53.336;55.932;2023-04-07T00:23:09;9.55;;;3.40;;
70729;SDS011;58315;53.336;55.932;2023-04-07T00:25:35;10.57;;;3.97;;
70729;SDS011;58315;53.336;55.932;2023-04-07T00:28:01;11.38;;;4.60;;
70729;SDS011;58315;53.336;55.932;2023-04-07T00:30:27;9.20;;;4.20;;
70729;SDS011;58315;53.336;55.932;2023-04-07T00:32:53;16.33;;;4.53;;
70729;SDS011;58315;53.336;55.932;2023-04-07T00:35:19;11.50;;;4.15;;
70729;SDS011;58315;53.336;55.932;2023-04-07T00:37:48;7.10;;;3.80;;
70729;SDS011;58315;53.336;55.932;2023-04-07T00:40:14;12.77;;;3.95;;
70729;SDS011;58315;53.336;55.932;2023-04-07T00:42:41;19.35;;;4.35;;
70729;SDS011;58315;53.336;55.932;2023-04-07T00:45:07;18.30;;;4.38;;
70729;SDS011;58315;53.336;55.932;2023-04-07T00:47:35;16.02;;;4.28;;
70729;SDS011;58315;53.336;55.932;2023-04-07T00:50:02;10.88;;;4.07;;
70729;SDS011;58315;53.336;55.932;2023-04-07T00:52:29;9.68;;;3.85;;
70729;SDS011;58315;53.336;55.932;2023-04-07T00:54:58;9.00;;;4.65;;
70729;SDS011;58315;53.336;55.932;2023-04-07T00:57:24;12.38;;;4.53;;
70729;SDS011;58315;53.336;55.932;2023-04-07T00:59:51;11.27;;;4.10;;
70729;SDS011;58315;53.336;55.932;2023-04-07T01:05:09;7.30;;;4.25;;
70729;SDS011;58315;53.336;55.932;2023-04-07T01:10:41;19.58;;;5.28;;
70729;SDS011;58315;53.336;55.932;2023-04-07T01:13:27;9.60;;;4.55;;
70729;SDS011;58315;53.336;55.932;2023-04-07T01:16:29;18.95;;;5.55;;
70729;SDS011;58315;53.336;55.932;2023-04-07T01:19:00;19.48;;;5.32;;
70729;SDS011;58315;53.336;55.932;2023-04-07T01:21:33;13.00;;;5.32;;
70729;SDS011;58315;53.336;55.932;2023-04-07T01:24:14;19.10;;;5.75;;
70729;SDS011;58315;53.336;55.932;2023-04-07T01:26:47;12.77;;;5.55;;
70729;SDS011;58315;53.336;55.932;2023-04-07T01:29:26;17.92;;;5.07;;
70729;SDS011;58315;53.336;55.932;2023-04-07T01:31:53;11.50;;;5.90;;
70729;SDS011;58315;53.336;55.932;2023-04-07T01:34:21;12.65;;;5.47;;
70729;SDS011;58315;53.336;55.932;2023-04-07T01:36:50;15.32;;;6.10;;
70729;SDS011;58315;53.336;55.932;2023-04-07T01:39:19;9.60;;;5.43;;
70729;SDS011;58315;53.336;55.932;2023-04-07T01:41:46;11.93;;;5.78;;
70729;SDS011;58315;53.336;55.932;2023-04-07T01:44:13;14.75;;;6.15;;
70729;SDS011;58315;53.336;55.932;2023-04-07T01:46:40;21.33;;;6.32;;
70729;SDS011;58315;53.336;55.932;2023-04-07T01:49:06;10.52;;;4.53;;
70729;SDS011;58315;53.336;55.932;2023-04-07T01:51:32;10.70;;;6.15;;
70729;SDS011;58315;53.336;55.932;2023-04-07T01:53:59;9.93;;;5.18;;
70729;SDS011;58315;53.336;55.932;2023-04-07T01:56:27;11.95;;;5.20;;
70729;SDS011;58315;53.336;55.932;2023-04-07T01:58:55;9.63;;;4.78;;
70729;SDS011;58315;53.336;55.932;2023-04-07T02:01:23;17.58;;;5.03;;
70729;SDS011;58315;53.336;55.932;2023-04-07T02:03:51;9.57;;;4.30;;
70729;SDS011;58315;53.336;55.932;2023-04-07T02:08:52;10.23;;;4.72;;
70729;SDS011;58315;53.336;55.932;2023-04-07T02:11:22;11.13;;;4.97;;
70729;SDS011;58315;53.336;55.932;2023-04-07T02:13:54;8.77;;;4.90;;
70729;SDS011;58315;53.336;55.932;2023-04-07T02:16:42;12.48;;;5.40;;
70729;SDS011;58315;53.336;55.932;2023-04-07T02:19:09;13.43;;;5.32;;
70729;SDS011;58315;53.336;55.932;2023-04-07T02:21:35;16.27;;;4.95;;
70729;SDS011;58315;53.336;55.932;2023-04-07T02:24:04;10.82;;;5.13;;
70729;SDS011;58315;53.336;55.932;2023-04-07T02:26:32;23.63;;;5.03;;
70729;SDS011;58315;53.336;55.932;2023-04-07T02:29:00;14.88;;;4.55;;
70729;SDS011;58315;53.336;55.932;2023-04-07T02:31:27;9.85;;;4.43;;
70729;SDS011;58315;53.336;55.932;2023-04-07T02:33:53;17.48;;;4.53;;
70729;SDS011;58315;53.336;55.932;2023-04-07T02:36:18;18.35;;;5.50;;
70729;SDS011;58315;53.336;55.932;2023-04-07T02:38:44;9.68;;;5.05;;
70729;SDS011;58315;53.336;55.932;2023-04-07T02:41:11;6.80;;;3.50;;
70729;SDS011;58315;53.336;55.932;2023-04-07T02:43:37;12.48;;;4.30;;
70729;SDS011;58315;53.336;55.932;2023-04-07T02:46:03;13.45;;;3.70;;
70729;SDS011;58315;53.336;55.932;2023-04-07T02:48:29;7.70;;;4.40;;
70729;SDS011;58315;53.336;55.932;2023-04-07T02:50:55;6.07;;;3.58;;
70729;SDS011;58315;53.336;55.932;2023-04-07T02:53:21;6.90;;;3.30;;
70729;SDS011;58315;53.336;55.932;2023-04-07T02:55:47;4.85;;;3.20;;
70729;SDS011;58315;53.336;55.932;2023-04-07T02:58:13;7.45;;;3.40;;
70729;SDS011;58315;53.336;55.932;2023-04-07T03:00:42;8.93;;;3.65;;
70729;SDS011;58315;53.336;55.932;2023-04-07T03:03:19;7.10;;;3.05;;
70729;SDS011;58315;53.336;55.932;2023-04-07T03:06:02;3.80;;;2.20;;
70729;SDS011;58315;53.336;55.932;2023-04-07T03:08:29;7.72;;;3.42;;
70729;SDS011;58315;53.336;55.932;2023-04-07T03:10:55;6.82;;;1.90;;
70729;SDS011;58315;53.336;55.932;2023-04-07T03:13:26;10.45;;;2.72;;
70729;SDS011;58315;53.336;55.932;2023-04-07T03:15:54;4.78;;;2.58;;
70729;SDS011;58315;53.336;55.932;2023-04-07T03:18:20;3.00;;;1.92;;
70729;SDS011;58315;53.336;55.932;2023-04-07T03:20:49;4.95;;;2.20;;
70729;SDS011;58315;53.336;55.932;2023-04-07T03:23:17;3.47;;;1.95;;
70729;SDS011;58315;53.336;55.932;2023-04-07T03:25:44;4.53;;;2.40;;
70729;SDS011;58315;53.336;55.932;2023-04-07T03:28:11;6.20;;;2.30;;
70729;SDS011;58315;53.336;55.932;2023-04-07T03:30:38;2.75;;;1.75;;
70729;SDS011;58315;53.336;55.932;2023-04-07T03:33:07;5.45;;;2.75;;
70729;SDS011;58315;53.336;55.932;2023-04-07T03:35:33;9.88;;;2.25;;
70729;SDS011;58315;53.336;55.932;2023-04-07T03:38:00;5.25;;;2.22;;
70729;SDS011;58315;53.336;55.932;2023-04-07T03:40:26;4.13;;;2.03;;
70729;SDS011;58315;53.336;55.932;2023-04-07T03:42:52;4.30;;;1.90;;
70729;SDS011;58315;53.336;55.932;2023-04-07T03:45:18;3.63;;;1.80;;
70729;SDS011;58315;53.336;55.932;2023-04-07T03:47:49;11.80;;;1.60;;
70729;SDS011;58315;53.336;55.932;2023-04-07T03:50:16;2.55;;;1.73;;
70729;SDS011;58315;53.336;55.932;2023-04-07T03:53:05;3.83;;;1.90;;
70729;SDS011;58315;53.336;55.932;2023-04-07T03:55:33;4.35;;;2.08;;
70729;SDS011;58315;53.336;55.932;2023-04-07T03:58:08;2.50;;;1.58;;
70729;SDS011;58315;53.336;55.932;2023-04-07T04:00:36;4.07;;;1.67;;
70729;SDS011;58315;53.336;55.932;2023-04-07T04:03:08;3.72;;;1.67;;
70729;SDS011;58315;53.336;55.932;2023-04-07T04:05:41;5.97;;;2.10;;
70729;SDS011;58315;53.336;55.932;2023-04-07T04:08:12;3.42;;;1.40;;
70729;SDS011;58315;53.336;55.932;2023-04-07T04:10:39;2.33;;;1.40;;
70729;SDS011;58315;53.336;55.932;2023-04-07T04:13:05;2.97;;;1.67;;
70729;SDS011;58315;53.336;55.932;2023-04-07T04:15:33;3.10;;;1.63;;
70729;SDS011;58315;53.336;55.932;2023-04-07T04:18:00;4.57;;;1.92;;
70729;SDS011;58315;53.336;55.932;2023-04-07T04:20:26;2.63;;;1.50;;
70729;SDS011;58315;53.336;55.932;2023-04-07T04:22:52;2.70;;;1.50;;
70729;SDS011;58315;53.336;55.932;2023-04-07T04:25:18;2.55;;;1.60;;
70729;SDS011;58315;53.336;55.932;2023-04-07T04:27:49;5.15;;;2.00;;
70729;SDS011;58315;53.336;55.932;2023-04-07T04:30:19;4.53;;;1.93;;
70729;SDS011;58315;53.336;55.932;2023-04-07T04:32:49;3.90;;;1.73;;
70729;SDS011;58315;53.336;55.932;2023-04-07T04:35:22;3.05;;;1.60;;
70729;SDS011;58315;53.336;55.932;2023-04-07T04:38:02;5.45;;;1.80;;
70729;SDS011;58315;53.336;55.932;2023-04-07T04:40:29;3.25;;;1.73;;
70729;SDS011;58315;53.336;55.932;2023-04-07T04:42:56;3.40;;;1.50;;
70729;SDS011;58315;53.336;55.932;2023-04-07T04:45:23;2.88;;;1.40;;
70729;SDS011;58315;53.336;55.932;2023-04-07T04:47:50;5.78;;;1.90;;
70729;SDS011;58315;53.336;55.932;2023-04-07T04:50:16;4.05;;;1.77;;
70729;SDS011;58315;53.336;55.932;2023-04-07T04:52:44;4.53;;;1.80;;
70729;SDS011;58315;53.336;55.932;2023-04-07T04:55:17;5.63;;;1.50;;
70729;SDS011;58315;53.336;55.932;2023-04-07T04:57:44;6.00;;;1.80;;
70729;SDS011;58315;53.336;55.932;2023-04-07T05:00:15;2.72;;;1.15;;
70729;SDS011;58315;53.336;55.932;2023-04-07T05:02:43;3.15;;;1.65;;
70729;SDS011;58315;53.336;55.932;2023-04-07T05:05:11;5.03;;;1.50;;
70729;SDS011;58315;53.336;55.932;2023-04-07T05:07:38;5.07;;;1.70;;
70729;SDS011;58315;53.336;55.932;2023-04-07T05:10:06;2.75;;;1.48;;
70729;SDS011;58315;53.336;55.932;2023-04-07T05:12:36;4.13;;;1.83;;
70729;SDS011;58315;53.336;55.932;2023-04-07T05:15:02;6.03;;;1.98;;
70729;SDS011;58315;53.336;55.932;2023-04-07T05:17:28;2.35;;;1.35;;
70729;SDS011;58315;53.336;55.932;2023-04-07T05:19:58;2.65;;;1.58;;
70729;SDS011;58315;53.336;55.932;2023-04-07T05:22:33;3.40;;;1.70;;
70729;SDS011;58315;53.336;55.932;2023-04-07T05:25:00;6.25;;;1.70;;
70729;SDS011;58315;53.336;55.932;2023-04-07T05:27:27;4.10;;;1.65;;
70729;SDS011;58315;53.336;55.932;2023-04-07T05:29:57;3.53;;;1.60;;
70729;SDS011;58315;53.336;55.932;2023-04-07T05:32:30;3.03;;;1.63;;
70729;SDS011;58315;53.336;55.932;2023-04-07T05:35:01;2.33;;;1.45;;
70729;SDS011;58315;53.336;55.932;2023-04-07T05:37:31;2.85;;;1.38;;
70729;SDS011;58315;53.336;55.932;2023-04-07T05:40:00;2.45;;;1.48;;
70729;SDS011;58315;53.336;55.932;2023-04-07T05:42:27;2.65;;;1.65;;
70729;SDS011;58315;53.336;55.932;2023-04-07T05:44:55;5.25;;;1.80;;
70729;SDS011;58315;53.336;55.932;2023-04-07T05:47:23;13.98;;;1.85;;
70729;SDS011;58315;53.336;55.932;2023-04-07T05:49:50;2.95;;;1.50;;
70729;SDS011;58315;53.336;55.932;2023-04-07T05:52:16;2.65;;;1.35;;
70729;SDS011;58315;53.336;55.932;2023-04-07T05:54:47;2.78;;;1.73;;
70729;SDS011;58315;53.336;55.932;2023-04-07T05:57:14;2.70;;;1.67;;
70729;SDS011;58315;53.336;55.932;2023-04-07T05:59:43;4.55;;;1.65;;
70729;SDS011;58315;53.336;55.932;2023-04-07T06:02:10;5.53;;;1.88;;
70729;SDS011;58315;53.336;55.932;2023-04-07T06:04:37;2.05;;;1.23;;
70729;SDS011;58315;53.336;55.932;2023-04-07T06:07:04;5.50;;;2.10;;
70729;SDS011;58315;53.336;55.932;2023-04-07T06:09:31;2.63;;;1.15;;
70729;SDS011;58315;53.336;55.932;2023-04-07T06:11:57;4.03;;;1.40;;
70729;SDS011;58315;53.336;55.932;2023-04-07T06:14:24;3.50;;;1.50;;
70729;SDS011;58315;53.336;55.932;2023-04-07T06:16:50;2.78;;;1.73;;
70729;SDS011;58315;53.336;55.932;2023-04-07T06:19:16;2.38;;;1.35;;
70729;SDS011;58315;53.336;55.932;2023-04-07T06:21:42;2.95;;;1.67;;
70729;SDS011;58315;53.336;55.932;2023-04-07T06:24:08;3.80;;;2.10;;
70729;SDS011;58315;53.336;55.932;2023-04-07T06:26:34;2.40;;;1.25;;
70729;SDS011;58315;53.336;55.932;2023-04-07T06:29:00;4.28;;;1.48;;
70729;SDS011;58315;53.336;55.932;2023-04-07T06:31:27;2.47;;;1.30;;
70729;SDS011;58315;53.336;55.932;2023-04-07T06:33:53;1.98;;;1.30;;
70729;SDS011;58315;53.336;55.932;2023-04-07T06:36:19;2.85;;;1.48;;
70729;SDS011;58315;53.336;55.932;2023-04-07T06:38:46;6.18;;;1.60;;
70729;SDS011;58315;53.336;55.932;2023-04-07T06:41:12;2.88;;;1.08;;
70729;SDS011;58315;53.336;55.932;2023-04-07T06:43:45;4.63;;;1.27;;
70729;SDS011;58315;53.336;55.932;2023-04-07T06:46:16;2.13;;;1.15;;
70729;SDS011;58315;53.336;55.932;2023-04-07T06:48:42;2.92;;;1.25;;
70729;SDS011;58315;53.336;55.932;2023-04-07T06:51:08;2.58;;;1.38;;
70729;SDS011;58315;53.336;55.932;2023-04-07T06:53:34;3.33;;;1.13;;
70729;SDS011;58315;53.336;55.932;2023-04-07T06:56:07;2.78;;;1.52;;
70729;SDS011;58315;53.336;55.932;2023-04-07T06:58:37;3.65;;;1.70;;
70729;SDS011;58315;53.336;55.932;2023-04-07T07:01:03;2.35;;;1.20;;
70729;SDS011;58315;53.336;55.932;2023-04-07T07:03:31;2.42;;;1.33;;
70729;SDS011;58315;53.336;55.932;2023-04-07T07:05:58;3.17;;;1.50;;
70729;SDS011;58315;53.336;55.932;2023-04-07T07:08:24;7.85;;;1.50;;
70729;SDS011;58315;53.336;55.932;2023-04-07T07:10:52;4.05;;;1.02;;
70729;SDS011;58315;53.336;55.932;2023-04-07T07:13:18;1.48;;;0.75;;
70729;SDS011;58315;53.336;55.932;2023-04-07T07:15:48;1.85;;;1.05;;
70729;SDS011;58315;53.336;55.932;2023-04-07T07:18:15;8.93;;;1.50;;
70729;SDS011;58315;53.336;55.932;2023-04-07T07:20:41;2.20;;;1.13;;
70729;SDS011;58315;53.336;55.932;2023-04-07T07:23:07;5.57;;;1.20;;
70729;SDS011;58315;53.336;55.932;2023-04-07T07:25:33;1.45;;;0.93;;
70729;SDS011;58315;53.336;55.932;2023-04-07T07:27:59;2.30;;;1.15;;
70729;SDS011;58315;53.336;55.932;2023-04-07T07:30:25;3.05;;;1.85;;
70729;SDS011;58315;53.336;55.932;2023-04-07T07:32:52;2.38;;;1.60;;
70729;SDS011;58315;53.336;55.932;2023-04-07T07:35:18;2.50;;;1.38;;
70729;SDS011;58315;53.336;55.932;2023-04-07T07:37:45;2.45;;;1.13;;
70729;SDS011;58315;53.336;55.932;2023-04-07T07:40:11;1.80;;;1.17;;
70729;SDS011;58315;53.336;55.932;2023-04-07T07:42:38;2.15;;;1.23;;
70729;SDS011;58315;53.336;55.932;2023-04-07T07:45:05;2.03;;;1.08;;
70729;SDS011;58315;53.336;55.932;2023-04-07T07:47:31;2.67;;;1.20;;
70729;SDS011;58315;53.336;55.932;2023-04-07T07:49:57;2.25;;;1.15;;
70729;SDS011;58315;53.336;55.932;2023-04-07T07:52:23;4.35;;;1.20;;
70729;SDS011;58315;53.336;55.932;2023-04-07T07:54:50;1.98;;;1.10;;
70729;SDS011;58315;53.336;55.932;2023-04-07T07:57:16;2.95;;;1.20;;
70729;SDS011;58315;53.336;55.932;2023-04-07T07:59:42;2.75;;;1.20;;
70729;SDS011;58315;53.336;55.932;2023-04-07T08:02:08;2.67;;;1.45;;
70729;SDS011;58315;53.336;55.932;2023-04-07T08:04:35;2.13;;;1.20;;
70729;SDS011;58315;53.336;55.932;2023-04-07T08:07:02;15.70;;;1.48;;
70729;SDS011;58315;53.336;55.932;2023-04-07T08:09:29;2.35;;;1.13;;
70729;SDS011;58315;53.336;55.932;2023-04-07T08:11:57;1.77;;;1.00;;
70729;SDS011;58315;53.336;55.932;2023-04-07T08:14:23;1.63;;;0.85;;
70729;SDS011;58315;53.336;55.932;2023-04-07T08:16:49;1.80;;;1.08;;
70729;SDS011;58315;53.336;55.932;2023-04-07T08:19:15;1.95;;;1.17;;
70729;SDS011;58315;53.336;55.932;2023-04-07T08:21:41;7.05;;;1.48;;
70729;SDS011;58315;53.336;55.932;2023-04-07T08:24:08;1.90;;;1.00;;
70729;SDS011;58315;53.336;55.932;2023-04-07T08:26:34;2.17;;;1.10;;
70729;SDS011;58315;53.336;55.932;2023-04-07T08:29:00;1.77;;;1.13;;
70729;SDS011;58315;53.336;55.932;2023-04-07T08:31:26;1.98;;;1.13;;
70729;SDS011;58315;53.336;55.932;2023-04-07T08:33:52;1.98;;;1.20;;
70729;SDS011;58315;53.336;55.932;2023-04-07T08:36:22;1.73;;;1.10;;
70729;SDS011;58315;53.336;55.932;2023-04-07T08:38:49;2.13;;;1.30;;
70729;SDS011;58315;53.336;55.932;2023-04-07T08:41:29;3.33;;;1.40;;
70729;SDS011;58315;53.336;55.932;2023-04-07T08:44:05;1.95;;;1.10;;
70729;SDS011;58315;53.336;55.932;2023-04-07T08:46:32;2.10;;;1.20;;
70729;SDS011;58315;53.336;55.932;2023-04-07T08:48:59;3.20;;;1.20;;
70729;SDS011;58315;53.336;55.932;2023-04-07T08:51:30;1.50;;;1.10;;
70729;SDS011;58315;53.336;55.932;2023-04-07T08:53:59;2.45;;;1.17;;
70729;SDS011;58315;53.336;55.932;2023-04-07T08:56:33;2.42;;;1.10;;
70729;SDS011;58315;53.336;55.932;2023-04-07T08:59:11;2.13;;;1.35;;
70729;SDS011;58315;53.336;55.932;2023-04-07T09:01:39;1.92;;;1.15;;
70729;SDS011;58315;53.336;55.932;2023-04-07T09:04:06;3.15;;;1.40;;
70729;SDS011;58315;53.336;55.932;2023-04-07T09:06:34;4.20;;;1.55;;
70729;SDS011;58315;53.336;55.932;2023-04-07T09:09:01;4.95;;;1.50;;
70729;SDS011;58315;53.336;55.932;2023-04-07T09:11:28;7.03;;;1.40;;
70729;SDS011;58315;53.336;55.932;2023-04-07T09:13:55;2.92;;;1.15;;
70729;SDS011;58315;53.336;55.932;2023-04-07T09:16:21;1.90;;;1.27;;
70729;SDS011;58315;53.336;55.932;2023-04-07T09:18:51;2.65;;;1.35;;
70729;SDS011;58315;53.336;55.932;2023-04-07T09:21:17;2.53;;;1.60;;
70729;SDS011;58315;53.336;55.932;2023-04-07T09:23:44;1.33;;;1.00;;
70729;SDS011;58315;53.336;55.932;2023-04-07T09:26:25;4.18;;;1.50;;
70729;SDS011;58315;53.336;55.932;2023-04-07T09:31:46;2.70;;;1.73;;
70729;SDS011;58315;53.336;55.932;2023-04-07T09:34:24;3.05;;;1.60;;
70729;SDS011;58315;53.336;55.932;2023-04-07T09:36:54;3.35;;;1.85;;
70729;SDS011;58315;53.336;55.932;2023-04-07T09:39:21;1.80;;;1.30;;
70729;SDS011;58315;53.336;55.932;2023-04-07T09:41:48;8.35;;;1.77;;
70729;SDS011;58315;53.336;55.932;2023-04-07T09:44:14;1.73;;;1.20;;
70729;SDS011;58315;53.336;55.932;2023-04-07T09:46:47;3.92;;;1.40;;
70729;SDS011;58315;53.336;55.932;2023-04-07T09:49:19;2.00;;;1.33;;
70729;SDS011;58315;53.336;55.932;2023-04-07T09:57:03;4.22;;;1.70;;
70729;SDS011;58315;53.336;55.932;2023-04-07T09:59:30;2.42;;;1.23;;
70729;SDS011;58315;53.336;55.932;2023-04-07T10:01:58;5.15;;;1.67;;
70729;SDS011;58315;53.336;55.932;2023-04-07T10:04:25;9.40;;;1.90;;
70729;SDS011;58315;53.336;55.932;2023-04-07T10:06:52;8.02;;;1.60;;
70729;SDS011;58315;53.336;55.932;2023-04-07T10:09:19;4.40;;;2.03;;
70729;SDS011;58315;53.336;55.932;2023-04-07T10:11:49;4.50;;;1.55;;
70729;SDS011;58315;53.336;55.932;2023-04-07T10:14:16;2.63;;;1.60;;
70729;SDS011;58315;53.336;55.932;2023-04-07T10:16:46;12.77;;;1.20;;
70729;SDS011;58315;53.336;55.932;2023-04-07T10:19:13;5.47;;;1.80;;
70729;SDS011;58315;53.336;55.932;2023-04-07T10:21:40;9.07;;;1.85;;
70729;SDS011;58315;53.336;55.932;2023-04-07T10:26:55;2.20;;;1.40;;
70729;SDS011;58315;53.336;55.932;2023-04-07T10:29:27;26.30;;;1.60;;
70729;SDS011;58315;53.336;55.932;2023-04-07T10:31:57;1.45;;;1.15;;
70729;SDS011;58315;53.336;55.932;2023-04-07T10:37:15;6.75;;;1.85;;
70729;SDS011;58315;53.336;55.932;2023-04-07T10:39:46;2.40;;;1.52;;
70729;SDS011;58315;53.336;55.932;2023-04-07T10:45:03;2.90;;;1.65;;
70729;SDS011;58315;53.336;55.932;2023-04-07T10:47:30;2.60;;;1.52;;
70729;SDS011;58315;53.336;55.932;2023-04-07T10:52:43;4.07;;;2.03;;
70729;SDS011;58315;53.336;55.932;2023-04-07T11:03:22;2.10;;;1.55;;
70729;SDS011;58315;53.336;55.932;2023-04-07T11:05:49;3.80;;;2.03;;
70729;SDS011;58315;53.336;55.932;2023-04-07T11:08:32;6.40;;;1.80;;
70729;SDS011;58315;53.336;55.932;2023-04-07T11:11:12;11.45;;;1.70;;
70729;SDS011;58315;53.336;55.932;2023-04-07T11:13:39;4.78;;;1.80;;
70729;SDS011;58315;53.336;55.932;2023-04-07T11:16:09;4.53;;;2.22;;
70729;SDS011;58315;53.336;55.932;2023-04-07T11:18:36;2.20;;;1.63;;
70729;SDS011;58315;53.336;55.932;2023-04-07T11:21:02;3.08;;;2.05;;
70729;SDS011;58315;53.336;55.932;2023-04-07T11:23:40;3.47;;;2.10;;
70729;SDS011;58315;53.336;55.932;2023-04-07T11:26:08;2.40;;;1.40;;
70729;SDS011;58315;53.336;55.932;2023-04-07T11:28:45;5.15;;;1.85;;
70729;SDS011;58315;53.336;55.932;2023-04-07T11:31:22;6.43;;;2.20;;
70729;SDS011;58315;53.336;55.932;2023-04-07T11:33:53;5.40;;;2.03;;
70729;SDS011;58315;53.336;55.932;2023-04-07T11:38:58;3.10;;;1.98;;
70729;SDS011;58315;53.336;55.932;2023-04-07T11:41:26;6.13;;;2.00;;
70729;SDS011;58315;53.336;55.932;2023-04-07T11:44:09;14.50;;;2.30;;
70729;SDS011;58315;53.336;55.932;2023-04-07T11:46:36;6.35;;;2.65;;
70729;SDS011;58315;53.336;55.932;2023-04-07T11:49:23;3.42;;;2.00;;
70729;SDS011;58315;53.336;55.932;2023-04-07T11:52:03;4.35;;;2.30;;
70729;SDS011;58315;53.336;55.932;2023-04-07T11:54:42;4.68;;;2.03;;
70729;SDS011;58315;53.336;55.932;2023-04-07T11:57:23;5.50;;;2.25;;
70729;SDS011;58315;53.336;55.932;2023-04-07T12:00:04;5.13;;;2.53;;
70729;SDS011;58315;53.336;55.932;2023-04-07T12:02:35;2.42;;;1.83;;
70729;SDS011;58315;53.336;55.932;2023-04-07T12:05:03;2.88;;;1.90;;
70729;SDS011;58315;53.336;55.932;2023-04-07T12:07:29;5.15;;;1.77;;
70729;SDS011;58315;53.336;55.932;2023-04-07T12:09:56;4.32;;;2.13;;
70729;SDS011;58315;53.336;55.932;2023-04-07T12:12:26;13.32;;;2.33;;
70729;SDS011;58315;53.336;55.932;2023-04-07T12:14:53;4.63;;;2.28;;
70729;SDS011;58315;53.336;55.932;2023-04-07T12:17:21;4.22;;;2.20;;
70729;SDS011;58315;53.336;55.932;2023-04-07T12:19:47;3.03;;;1.92;;
70729;SDS011;58315;53.336;55.932;2023-04-07T12:22:13;1.90;;;1.40;;
70729;SDS011;58315;53.336;55.932;2023-04-07T12:24:39;5.25;;;2.30;;
70729;SDS011;58315;53.336;55.932;2023-04-07T12:27:05;7.63;;;2.42;;
70729;SDS011;58315;53.336;55.932;2023-04-07T12:29:32;5.10;;;2.60;;
70729;SDS011;58315;53.336;55.932;2023-04-07T12:31:59;3.72;;;2.13;;
70729;SDS011;58315;53.336;55.932;2023-04-07T12:34:25;3.85;;;2.42;;
70729;SDS011;58315;53.336;55.932;2023-04-07T12:36:51;6.82;;;2.15;;
70729;SDS011;58315;53.336;55.932;2023-04-07T12:39:18;5.90;;;2.53;;
70729;SDS011;58315;53.336;55.932;2023-04-07T12:41:44;9.13;;;2.53;;
70729;SDS011;58315;53.336;55.932;2023-04-07T12:44:12;15.00;;;3.05;;
70729;SDS011;58315;53.336;55.932;2023-04-07T12:46:38;11.60;;;2.80;;
70729;SDS011;58315;53.336;55.932;2023-04-07T12:49:03;8.65;;;2.38;;
70729;SDS011;58315;53.336;55.932;2023-04-07T12:51:30;3.92;;;2.35;;
70729;SDS011;58315;53.336;55.932;2023-04-07T12:53:58;5.47;;;2.67;;
70729;SDS011;58315;53.336;55.932;2023-04-07T12:56:25;4.05;;;2.17;;
70729;SDS011;58315;53.336;55.932;2023-04-07T12:58:53;6.22;;;2.17;;
70729;SDS011;58315;53.336;55.932;2023-04-07T13:01:19;4.30;;;2.35;;
70729;SDS011;58315;53.336;55.932;2023-04-07T13:03:48;6.13;;;2.38;;
70729;SDS011;58315;53.336;55.932;2023-04-07T13:06:14;3.42;;;1.80;;
70729;SDS011;58315;53.336;55.932;2023-04-07T13:08:41;4.30;;;2.40;;
70729;SDS011;58315;53.336;55.932;2023-04-07T13:11:07;3.05;;;1.98;;
70729;SDS011;58315;53.336;55.932;2023-04-07T13:13:33;5.85;;;2.20;;
70729;SDS011;58315;53.336;55.932;2023-04-07T13:16:00;4.10;;;2.13;;
70729;SDS011;58315;53.336;55.932;2023-04-07T13:18:26;3.38;;;2.03;;
70729;SDS011;58315;53.336;55.932;2023-04-07T13:20:52;3.88;;;2.28;;
70729;SDS011;58315;53.336;55.932;2023-04-07T13:23:18;3.90;;;1.90;;
70729;SDS011;58315;53.336;55.932;2023-04-07T13:25:44;3.67;;;2.10;;
70729;SDS011;58315;53.336;55.932;2023-04-07T13:28:10;3.80;;;1.88;;
70729;SDS011;58315;53.336;55.932;2023-04-07T13:30:36;5.38;;;2.00;;
70729;SDS011;58315;53.336;55.932;2023-04-07T13:33:02;4.75;;;2.22;;
70729;SDS011;58315;53.336;55.932;2023-04-07T13:35:28;8.32;;;2.15;;
70729;SDS011;58315;53.336;55.932;2023-04-07T13:38:00;4.85;;;2.30;;
70729;SDS011;58315;53.336;55.932;2023-04-07T13:40:27;4.40;;;2.42;;
70729;SDS011;58315;53.336;55.932;2023-04-07T13:42:54;5.18;;;2.70;;
70729;SDS011;58315;53.336;55.932;2023-04-07T13:45:21;5.00;;;2.35;;
70729;SDS011;58315;53.336;55.932;2023-04-07T13:47:46;15.38;;;2.55;;
70729;SDS011;58315;53.336;55.932;2023-04-07T13:50:13;12.80;;;3.28;;
70729;SDS011;58315;53.336;55.932;2023-04-07T13:52:39;17.98;;;2.53;;
70729;SDS011;58315;53.336;55.932;2023-04-07T13:55:05;16.70;;;2.25;;
70729;SDS011;58315;53.336;55.932;2023-04-07T13:57:31;4.22;;;2.10;;
70729;SDS011;58315;53.336;55.932;2023-04-07T13:59:57;5.03;;;2.45;;
70729;SDS011;58315;53.336;55.932;2023-04-07T14:02:24;3.42;;;2.05;;
70729;SDS011;58315;53.336;55.932;2023-04-07T14:04:52;9.18;;;2.13;;
70729;SDS011;58315;53.336;55.932;2023-04-07T14:07:18;29.75;;;4.28;;
70729;SDS011;58315;53.336;55.932;2023-04-07T14:09:44;13.32;;;3.53;;
70729;SDS011;58315;53.336;55.932;2023-04-07T14:12:11;8.52;;;2.22;;
70729;SDS011;58315;53.336;55.932;2023-04-07T14:14:36;13.18;;;2.85;;
70729;SDS011;58315;53.336;55.932;2023-04-07T14:17:03;10.85;;;4.00;;
70729;SDS011;58315;53.336;55.932;2023-04-07T14:19:29;6.80;;;2.80;;
70729;SDS011;58315;53.336;55.932;2023-04-07T14:21:55;7.65;;;2.80;;
70729;SDS011;58315;53.336;55.932;2023-04-07T14:24:21;4.53;;;2.40;;
70729;SDS011;58315;53.336;55.932;2023-04-07T14:26:47;4.05;;;2.13;;
70729;SDS011;58315;53.336;55.932;2023-04-07T14:29:13;4.30;;;2.15;;
70729;SDS011;58315;53.336;55.932;2023-04-07T14:31:39;3.22;;;1.77;;
70729;SDS011;58315;53.336;55.932;2023-04-07T14:34:09;4.68;;;2.25;;
70729;SDS011;58315;53.336;55.932;2023-04-07T14:36:36;3.50;;;1.85;;
70729;SDS011;58315;53.336;55.932;2023-04-07T14:39:02;3.40;;;1.98;;
70729;SDS011;58315;53.336;55.932;2023-04-07T14:41:28;3.28;;;1.80;;
70729;SDS011;58315;53.336;55.932;2023-04-07T14:43:54;4.07;;;1.50;;
70729;SDS011;58315;53.336;55.932;2023-04-07T14:46:21;3.17;;;1.88;;
70729;SDS011;58315;53.336;55.932;2023-04-07T14:48:48;4.53;;;2.15;;
70729;SDS011;58315;53.336;55.932;2023-04-07T14:51:17;8.43;;;2.40;;
70729;SDS011;58315;53.336;55.932;2023-04-07T14:53:44;5.75;;;2.10;;
70729;SDS011;58315;53.336;55.932;2023-04-07T14:56:10;6.88;;;2.38;;
70729;SDS011;58315;53.336;55.932;2023-04-07T14:58:37;4.38;;;2.15;;
70729;SDS011;58315;53.336;55.932;2023-04-07T15:01:05;3.33;;;2.10;;
70729;SDS011;58315;53.336;55.932;2023-04-07T15:03:31;6.47;;;3.03;;
70729;SDS011;58315;53.336;55.932;2023-04-07T15:05:59;6.05;;;2.92;;
70729;SDS011;58315;53.336;55.932;2023-04-07T15:08:25;4.30;;;2.35;;
70729;SDS011;58315;53.336;55.932;2023-04-07T15:10:51;4.35;;;2.20;;
70729;SDS011;58315;53.336;55.932;2023-04-07T15:13:17;7.10;;;2.35;;
70729;SDS011;58315;53.336;55.932;2023-04-07T15:15:43;8.20;;;2.10;;